Time;durP1;ratioP1;P1;durP2;ratioP2;P2;SDS_P1;SDS_P2;PMS_P1;PMS_P2;Temp;Humidity;BMP_temperature;BMP_pressure;BME280_temperature;BME280_humidity;BME280_pressure;Samples;Min_cycle;Max_cycle;Signal;HPM_P1;HPM_P2
2021/07/03 00:01:29;;;;;;;28.80;17.20;;;;;;;16.32;100.00;100966.75;5016473;28;20041;-61
2021/07/03 00:03:57;;;;;;;28.35;16.65;;;;;;;16.24;100.00;100956.13;5021313;28;20437;-62
2021/07/03 00:06:25;;;;;;;29.70;17.85;;;;;;;16.17;100.00;100956.09;5019734;28;20041;-61
2021/07/03 00:08:53;;;;;;;25.92;16.20;;;;;;;16.11;100.00;100962.25;5015864;28;20037;-61
2021/07/03 00:11:22;;;;;;;28.08;17.38;;;;;;;16.04;100.00;100964.09;5021514;28;20042;-61
2021/07/03 00:13:50;;;;;;;30.38;16.75;;;;;;;16.02;100.00;100963.47;5018190;28;20282;-62
2021/07/03 00:16:18;;;;;;;26.60;16.33;;;;;;;15.86;100.00;100966.41;5018265;28;20311;-60
2021/07/03 00:18:46;;;;;;;27.52;16.15;;;;;;;15.82;100.00;100968.69;5015902;28;20128;-62
2021/07/03 00:21:14;;;;;;;29.85;16.80;;;;;;;15.79;100.00;100960.97;5016413;28;20065;-62
2021/07/03 00:23:42;;;;;;;24.70;16.55;;;;;;;15.84;100.00;100959.38;5014309;28;20046;-62
2021/07/03 00:26:10;;;;;;;30.70;17.25;;;;;;;15.86;100.00;100963.72;5019149;28;20040;-61
2021/07/03 00:28:39;;;;;;;29.13;17.55;;;;;;;15.86;100.00;100948.41;5017626;28;20042;-61
2021/07/03 00:31:07;;;;;;;27.23;17.23;;;;;;;15.96;100.00;100946.22;5017079;28;20049;-61
2021/07/03 00:33:35;;;;;;;25.70;16.13;;;;;;;15.93;100.00;100945.75;5014214;28;20045;-61
2021/07/03 00:36:04;;;;;;;28.30;17.38;;;;;;;15.93;100.00;100948.44;5020171;28;20080;-61
2021/07/03 00:38:32;;;;;;;29.52;16.90;;;;;;;15.87;100.00;100947.38;5017643;28;20045;-61
2021/07/03 00:41:00;;;;;;;24.35;15.32;;;;;;;15.77;100.00;100952.25;5017587;28;20045;-61
2021/07/03 00:43:28;;;;;;;26.05;16.95;;;;;;;15.76;100.00;100956.81;5014630;28;20090;-61
2021/07/03 00:45:57;;;;;;;28.65;18.63;;;;;;;15.68;100.00;100948.84;5018192;28;20429;-61
2021/07/03 00:48:25;;;;;;;29.05;17.67;;;;;;;15.65;100.00;100957.31;5023168;28;20037;-61
2021/07/03 00:50:53;;;;;;;29.38;18.10;;;;;;;15.70;100.00;100951.34;5015073;28;20098;-61
2021/07/03 00:53:21;;;;;;;27.20;16.02;;;;;;;15.88;100.00;100949.03;5015227;28;20045;-62
2021/07/03 00:55:53;;;;;;;29.42;17.67;;;;;;;15.93;100.00;100951.16;5021834;28;20466;-61
2021/07/03 00:58:21;;;;;;;27.02;17.27;;;;;;;15.94;100.00;100950.13;5018489;28;20048;-62
2021/07/03 01:00:50;;;;;;;28.02;17.80;;;;;;;15.94;100.00;100948.25;5018787;28;20038;-61
2021/07/03 01:03:19;;;;;;;28.25;16.50;;;;;;;15.95;100.00;100951.81;5020200;28;20111;-61
2021/07/03 01:05:49;;;;;;;26.55;16.50;;;;;;;16.02;100.00;100944.59;5016862;28;20064;-61
2021/07/03 01:08:17;;;;;;;31.05;17.70;;;;;;;16.04;100.00;100942.53;5022928;28;20060;-61
2021/07/03 01:10:45;;;;;;;34.42;18.38;;;;;;;16.04;100.00;100934.44;5016921;28;20041;-61
2021/07/03 01:13:13;;;;;;;30.38;17.60;;;;;;;16.05;100.00;100938.81;5015338;28;20053;-61
2021/07/03 01:15:41;;;;;;;29.92;17.42;;;;;;;16.03;100.00;100930.09;5019242;28;20033;-61
2021/07/03 01:18:09;;;;;;;30.50;18.02;;;;;;;15.95;100.00;100928.38;5020050;28;20037;-61
2021/07/03 01:20:38;;;;;;;27.63;17.38;;;;;;;15.96;100.00;100926.50;5018608;28;20045;-61
2021/07/03 01:23:08;;;;;;;23.95;16.02;;;;;;;15.93;100.00;100926.91;5019532;28;20112;-61
2021/07/03 01:25:36;;;;;;;29.20;16.73;;;;;;;15.88;100.00;100926.66;5021781;28;20034;-64
2021/07/03 01:28:06;;;;;;;27.27;16.90;;;;;;;15.88;100.00;100922.13;5022791;28;20049;-60
2021/07/03 01:30:34;;;;;;;27.55;17.42;;;;;;;15.88;100.00;100921.28;5016670;28;20083;-61
2021/07/03 01:33:02;;;;;;;29.25;17.08;;;;;;;15.88;100.00;100916.72;5018839;28;20452;-61
2021/07/03 01:35:31;;;;;;;23.90;15.77;;;;;;;15.93;100.00;100918.84;5019515;28;20107;-61
2021/07/03 01:37:59;;;;;;;30.25;18.65;;;;;;;15.99;100.00;100921.59;5022768;28;20316;-61
2021/07/03 01:40:29;;;;;;;26.27;16.05;;;;;;;16.17;100.00;100912.16;5018238;28;20046;-61
2021/07/03 01:42:57;;;;;;;28.80;16.80;;;;;;;16.14;100.00;100915.25;5019071;28;20087;-61
2021/07/03 01:45:25;;;;;;;25.90;16.45;;;;;;;16.05;100.00;100922.66;5020573;28;20547;-61
2021/07/03 01:47:53;;;;;;;27.70;17.27;;;;;;;15.95;100.00;100917.63;5018805;28;20041;-61
2021/07/03 01:50:21;;;;;;;27.20;15.50;;;;;;;16.04;100.00;100920.97;5016485;28;20154;-60
2021/07/03 01:52:51;;;;;;;23.90;15.35;;;;;;;16.15;100.00;100919.63;5023826;28;20049;-61
2021/07/03 01:55:19;;;;;;;24.83;14.38;;;;;;;16.21;100.00;100918.00;5019188;28;20060;-61
2021/07/03 01:57:48;;;;;;;20.60;14.65;;;;;;;16.16;100.00;100916.72;5020850;28;20050;-60
2021/07/03 02:00:17;;;;;;;28.00;16.30;;;;;;;16.09;100.00;100913.16;5018452;28;20120;-60
2021/07/03 02:02:45;;;;;;;26.88;15.70;;;;;;;16.06;100.00;100904.63;5015058;28;20045;-60
2021/07/03 02:05:15;;;;;;;25.23;16.20;;;;;;;16.15;100.00;100909.66;5020123;28;20053;-61
2021/07/03 02:07:42;;;;;;;26.40;15.43;;;;;;;16.18;100.00;100905.75;5021476;28;20468;-61
2021/07/03 02:10:11;;;;;;;26.80;16.33;;;;;;;16.26;100.00;100897.50;5020519;28;20437;-60
2021/07/03 02:12:39;;;;;;;29.23;16.83;;;;;;;16.31;100.00;100905.81;5018203;28;20049;-61
2021/07/03 02:15:10;;;;;;;25.75;16.15;;;;;;;16.18;100.00;100898.47;5016860;28;20446;-61
2021/07/03 02:19:51;;;;;;;24.80;15.65;;;;;;;16.23;100.00;100897.06;5064051;27;20845;-59
2021/07/03 02:22:19;;;;;;;26.35;14.80;;;;;;;16.38;100.00;100899.63;5051755;28;20048;-59
2021/07/03 02:24:46;;;;;;;24.05;15.55;;;;;;;16.42;100.00;100892.81;5047161;28;20106;-59
2021/07/03 02:27:14;;;;;;;28.17;16.98;;;;;;;16.42;100.00;100884.75;5051287;28;20070;-58
2021/07/03 02:29:42;;;;;;;25.73;15.98;;;;;;;16.39;100.00;100887.81;5053347;28;20365;-58
2021/07/03 02:32:10;;;;;;;23.90;16.27;;;;;;;16.31;100.00;100891.50;5051335;28;20075;-62
2021/07/03 02:34:38;;;;;;;25.27;15.35;;;;;;;16.31;100.00;100884.25;5054881;28;20068;-59
2021/07/03 02:37:08;;;;;;;27.58;16.95;;;;;;;16.26;100.00;100884.03;5056390;28;20366;-59
2021/07/03 02:39:36;;;;;;;22.45;15.30;;;;;;;16.22;100.00;100877.38;5050997;28;20047;-59
2021/07/03 02:42:04;;;;;;;27.95;15.75;;;;;;;16.39;100.00;100883.28;5056803;28;20048;-59
2021/07/03 02:44:32;;;;;;;24.20;14.75;;;;;;;16.45;100.00;100876.25;5055532;28;20049;-60
2021/07/03 02:47:00;;;;;;;23.67;15.10;;;;;;;16.47;100.00;100877.72;5054880;28;20041;-59
2021/07/03 02:49:27;;;;;;;26.92;15.05;;;;;;;16.52;100.00;100877.09;5049657;28;20128;-59
2021/07/03 02:51:56;;;;;;;21.15;14.25;;;;;;;16.47;100.00;100875.03;5054355;28;20041;-59
2021/07/03 02:54:25;;;;;;;28.35;16.30;;;;;;;16.59;100.00;100874.44;5049819;28;20051;-59
2021/07/03 02:56:57;;;;;;;25.95;15.48;;;;;;;16.67;100.00;100876.94;5051102;28;20103;-59
2021/07/03 02:59:25;;;;;;;22.52;15.68;;;;;;;16.67;100.00;100876.94;5048547;28;20424;-59
2021/07/03 03:01:54;;;;;;;23.17;15.10;;;;;;;16.65;100.00;100873.63;5048860;28;20049;-58
2021/07/03 03:04:22;;;;;;;25.77;14.73;;;;;;;16.60;100.00;100876.09;5048412;28;20041;-59
2021/07/03 03:06:50;;;;;;;26.08;15.80;;;;;;;16.58;100.00;100875.47;5051700;28;20103;-59
2021/07/03 03:09:18;;;;;;;26.50;14.95;;;;;;;16.57;100.00;100874.66;5049741;28;20042;-59
2021/07/03 03:11:47;;;;;;;28.48;15.35;;;;;;;16.53;100.00;100878.78;5048171;28;20527;-59
2021/07/03 03:14:15;;;;;;;22.98;14.35;;;;;;;16.56;100.00;100874.81;5046763;28;20044;-59
2021/07/03 03:16:43;;;;;;;27.65;16.17;;;;;;;16.59;100.00;100867.19;5046341;28;20044;-59
2021/07/03 03:19:11;;;;;;;22.85;13.57;;;;;;;16.64;100.00;100871.97;5052178;28;20548;-59
2021/07/03 03:21:39;;;;;;;25.48;15.32;;;;;;;16.59;100.00;100871.75;5048988;28;20547;-60
2021/07/03 03:24:07;;;;;;;21.42;13.82;;;;;;;16.55;100.00;100871.31;5049779;28;20072;-59
2021/07/03 03:26:35;;;;;;;22.63;14.02;;;;;;;16.54;100.00;100875.03;5051193;28;20099;-59
2021/07/03 03:29:05;;;;;;;26.70;13.90;;;;;;;16.52;100.00;100861.75;5044219;28;20053;-59
2021/07/03 03:31:33;;;;;;;26.33;14.52;;;;;;;16.54;100.00;100872.34;5034718;28;20106;-59
2021/07/03 03:34:01;;;;;;;25.95;14.80;;;;;;;16.62;100.00;100861.38;5033666;28;20115;-59
2021/07/03 03:36:30;;;;;;;24.20;15.75;;;;;;;16.47;100.00;100861.53;5036299;28;20240;-59
2021/07/03 03:38:58;;;;;;;26.05;16.65;;;;;;;16.46;100.00;100869.84;5035008;28;20045;-58
2021/07/03 03:41:28;;;;;;;28.52;16.98;;;;;;;16.41;100.00;100862.31;5040187;28;20192;-59
2021/07/03 03:43:57;;;;;;;22.63;15.20;;;;;;;16.38;100.00;100859.22;5031989;28;20049;-60
2021/07/03 03:46:26;;;;;;;24.52;14.73;;;;;;;16.43;100.00;100865.66;5036596;28;20049;-61
2021/07/03 03:48:54;;;;;;;22.65;15.40;;;;;;;16.43;100.00;100854.88;5036832;28;20486;-60
2021/07/03 03:51:23;;;;;;;25.95;14.25;;;;;;;16.43;100.00;100862.13;5036667;28;20033;-60
2021/07/03 03:53:51;;;;;;;23.63;14.45;;;;;;;16.46;100.00;100865.25;5033864;28;20343;-61
2021/07/03 03:56:19;;;;;;;24.95;14.65;;;;;;;16.52;100.00;100853.66;5037971;28;20049;-61
2021/07/03 03:58:47;;;;;;;28.67;17.35;;;;;;;16.56;100.00;100854.09;5034328;28;20049;-60
2021/07/03 04:01:15;;;;;;;25.83;14.40;;;;;;;16.58;100.00;100856.59;5037151;28;20068;-60
2021/07/03 04:03:44;;;;;;;26.73;15.38;;;;;;;16.49;100.00;100856.78;5038052;28;20633;-61
2021/07/03 04:06:12;;;;;;;25.55;15.82;;;;;;;16.44;100.00;100861.09;5034194;28;20045;-62
2021/07/03 04:08:40;;;;;;;25.83;15.98;;;;;;;16.39;100.00;100859.00;5036567;28;20060;-61
2021/07/03 04:11:08;;;;;;;22.58;13.68;;;;;;;16.48;100.00;100852.41;5034320;28;20056;-61
2021/07/03 04:13:36;;;;;;;22.45;14.70;;;;;;;16.45;100.00;100862.78;5033870;28;20041;-61
2021/07/03 04:16:05;;;;;;;26.00;13.95;;;;;;;16.63;100.00;100856.84;5036100;28;20033;-61
2021/07/03 04:18:33;;;;;;;21.63;13.80;;;;;;;16.70;100.00;100847.72;5036078;28;20042;-61
2021/07/03 04:21:02;;;;;;;26.85;14.98;;;;;;;16.77;100.00;100841.50;5038645;28;20338;-61
2021/07/03 04:23:31;;;;;;;23.08;14.13;;;;;;;16.71;100.00;100843.16;5036642;28;20044;-60
2021/07/03 04:25:58;;;;;;;21.38;13.60;;;;;;;16.61;100.00;100838.13;5033194;28;20050;-61
2021/07/03 04:28:26;;;;;;;23.20;13.75;;;;;;;16.56;100.00;100842.47;5036389;28;20048;-61
2021/07/03 04:30:54;;;;;;;24.35;15.02;;;;;;;16.51;100.00;100829.63;5036059;28;20048;-60
2021/07/03 04:33:22;;;;;;;23.55;13.90;;;;;;;16.55;100.00;100840.84;5032641;28;20052;-62
2021/07/03 04:35:50;;;;;;;22.60;14.20;;;;;;;16.56;100.00;100837.94;5037913;28;20104;-61
2021/07/03 04:38:20;;;;;;;24.60;14.32;;;;;;;16.64;100.00;100834.22;5035262;28;20095;-61
2021/07/03 04:40:48;;;;;;;23.75;14.23;;;;;;;16.72;100.00;100833.22;5033445;28;20049;-61
2021/07/03 04:43:16;;;;;;;23.50;13.95;;;;;;;16.79;100.00;100826.78;5031981;28;20068;-61
2021/07/03 04:45:44;;;;;;;24.05;14.77;;;;;;;16.79;100.00;100828.66;5035127;28;20061;-61
2021/07/03 04:48:13;;;;;;;21.35;13.38;;;;;;;16.83;100.00;100827.22;5037584;28;20042;-61
2021/07/03 04:50:41;;;;;;;19.92;12.95;;;;;;;16.82;100.00;100836.34;5034783;28;20046;-61
2021/07/03 04:53:09;;;;;;;20.88;13.20;;;;;;;16.80;100.00;100823.06;5030059;28;20049;-61
2021/07/03 04:55:38;;;;;;;23.17;13.43;;;;;;;16.86;100.00;100827.63;5033733;28;20437;-61
2021/07/03 04:58:08;;;;;;;22.75;13.07;;;;;;;16.95;100.00;100822.09;5035552;28;20054;-61
2021/07/03 05:00:35;;;;;;;20.67;12.85;;;;;;;16.99;100.00;100821.47;5034412;28;20048;-61
2021/07/03 05:03:03;;;;;;;21.60;13.55;;;;;;;16.99;100.00;100815.25;5032694;28;20053;-62
2021/07/03 05:05:31;;;;;;;28.15;15.30;;;;;;;17.01;100.00;100824.81;5031221;28;20048;-61
2021/07/03 05:07:59;;;;;;;22.20;13.23;;;;;;;17.01;100.00;100827.50;5029858;28;20319;-61
2021/07/03 05:10:27;;;;;;;23.45;12.88;;;;;;;16.99;100.00;100832.25;5031064;28;20092;-62
2021/07/03 05:12:56;;;;;;;23.92;14.35;;;;;;;17.08;100.00;100835.59;5031011;28;20111;-61
2021/07/03 05:15:24;;;;;;;19.95;12.32;;;;;;;16.96;100.00;100837.25;5029117;28;20103;-62
2021/07/03 05:17:52;;;;;;;22.17;12.73;;;;;;;17.12;100.00;100836.00;5034687;28;21136;-61
2021/07/03 05:20:21;;;;;;;17.95;11.32;;;;;;;17.16;100.00;100827.28;5032047;28;20033;-61
2021/07/03 05:22:49;;;;;;;21.25;11.50;;;;;;;17.14;100.00;100828.56;5031295;28;20210;-61
2021/07/03 05:25:16;;;;;;;20.30;12.40;;;;;;;17.14;100.00;100817.75;5034746;28;20380;-61
2021/07/03 05:27:44;;;;;;;16.90;10.60;;;;;;;17.13;100.00;100822.31;5033092;28;20445;-61
2021/07/03 05:30:15;;;;;;;19.20;12.18;;;;;;;17.25;100.00;100827.91;5036838;28;20041;-61
2021/07/03 05:32:43;;;;;;;17.77;11.45;;;;;;;17.37;100.00;100820.03;5034321;28;20053;-61
2021/07/03 05:35:12;;;;;;;16.65;10.90;;;;;;;17.48;100.00;100823.97;5036414;28;20350;-61
2021/07/03 05:37:41;;;;;;;18.50;10.32;;;;;;;17.54;100.00;100813.16;5040345;28;20041;-61
2021/07/03 05:40:12;;;;;;;18.90;11.98;;;;;;;17.63;100.00;100815.66;5036443;28;20045;-62
2021/07/03 05:42:40;;;;;;;22.60;12.75;;;;;;;17.81;100.00;100818.53;5030311;28;20384;-62
2021/07/03 05:45:10;;;;;;;16.73;10.65;;;;;;;18.00;100.00;100816.03;5037145;28;20127;-61
2021/07/03 05:47:39;;;;;;;19.35;11.30;;;;;;;18.15;100.00;100807.66;5032082;28;20037;-61
2021/07/03 05:50:08;;;;;;;18.20;11.25;;;;;;;18.09;100.00;100811.22;5037812;28;20337;-61
2021/07/03 05:52:36;;;;;;;19.88;10.30;;;;;;;18.18;100.00;100804.53;5033141;28;20092;-61
2021/07/03 05:55:07;;;;;;;16.80;9.93;;;;;;;18.29;100.00;100811.16;5037864;28;20043;-59
2021/07/03 05:57:35;;;;;;;17.90;9.80;;;;;;;18.25;100.00;100797.22;5036758;28;20183;-58
2021/07/03 06:00:04;;;;;;;16.27;9.50;;;;;;;18.23;100.00;100802.03;5033666;28;20447;-61
2021/07/03 06:02:32;;;;;;;21.58;12.10;;;;;;;18.28;100.00;100795.97;5032557;28;20052;-61
2021/07/03 06:05:01;;;;;;;15.85;10.60;;;;;;;18.46;100.00;100798.78;5036154;28;20048;-61
2021/07/03 06:07:29;;;;;;;17.00;9.80;;;;;;;18.77;100.00;100802.56;5033987;28;20053;-61
2021/07/03 06:09:57;;;;;;;14.15;9.65;;;;;;;18.94;100.00;100794.78;5035409;28;20052;-61
2021/07/03 06:12:25;;;;;;;21.08;11.02;;;;;;;18.87;100.00;100792.13;5033614;28;20049;-61
2021/07/03 06:14:53;;;;;;;14.95;9.60;;;;;;;19.00;100.00;100793.09;5033540;28;20518;-61
2021/07/03 06:17:21;;;;;;;16.38;9.88;;;;;;;19.05;100.00;100793.25;5033515;28;20049;-61
2021/07/03 06:19:49;;;;;;;15.75;9.80;;;;;;;19.20;100.00;100787.50;5032683;28;20418;-61
2021/07/03 06:22:18;;;;;;;16.50;9.85;;;;;;;19.20;100.00;100784.81;5028921;28;20456;-61
2021/07/03 06:24:48;;;;;;;15.48;10.48;;;;;;;19.32;100.00;100784.91;5039296;28;20049;-61
2021/07/03 06:27:16;;;;;;;17.02;10.15;;;;;;;19.43;100.00;100784.19;5037107;28;20041;-61
2021/07/03 06:29:44;;;;;;;16.10;9.98;;;;;;;19.47;100.00;100777.25;5033627;28;20464;-61
2021/07/03 06:32:13;;;;;;;17.20;10.50;;;;;;;19.55;100.00;100782.41;5034467;28;20457;-61
2021/07/03 06:34:41;;;;;;;14.20;9.95;;;;;;;19.53;100.00;100778.25;5029000;28;20046;-61
2021/07/03 06:37:09;;;;;;;15.23;10.32;;;;;;;19.66;100.00;100785.41;5031802;28;20092;-61
2021/07/03 06:39:38;;;;;;;16.50;10.48;;;;;;;19.73;100.00;100786.16;5033340;28;20064;-61
2021/07/03 06:42:06;;;;;;;14.95;9.30;;;;;;;19.90;100.00;100781.00;5036888;28;20037;-62
2021/07/03 06:44:34;;;;;;;17.00;9.40;;;;;;;19.90;100.00;100787.28;5029243;28;20044;-61
2021/07/03 06:47:03;;;;;;;14.27;9.13;;;;;;;19.86;100.00;100777.09;5032073;28;20060;-61
2021/07/03 06:49:31;;;;;;;15.65;8.82;;;;;;;19.64;100.00;100779.41;5030072;28;20125;-59
2021/07/03 06:51:59;;;;;;;13.02;9.13;;;;;;;19.60;100.00;100776.31;5031209;28;20816;-59
2021/07/03 06:54:27;;;;;;;14.52;8.95;;;;;;;19.68;100.00;100778.72;5032840;28;20053;-58
2021/07/03 06:56:58;;;;;;;14.77;8.43;;;;;;;20.21;100.00;100773.78;5033081;28;20041;-59
2021/07/03 06:59:26;;;;;;;19.00;9.32;;;;;;;21.72;100.00;100777.28;5029531;28;20045;-61
2021/07/03 07:01:55;;;;;;;13.65;8.70;;;;;;;22.19;100.00;100775.28;5032692;28;20041;-63
2021/07/03 07:04:23;;;;;;;11.13;7.40;;;;;;;23.59;100.00;100770.34;5028224;28;20044;-61
2021/07/03 07:06:55;;;;;;;10.25;7.13;;;;;;;24.43;100.00;100771.09;5038267;28;20421;-59
2021/07/03 07:09:24;;;;;;;9.18;7.38;;;;;;;23.95;100.00;100765.38;5037941;28;20041;-59
2021/07/03 07:11:53;;;;;;;11.35;7.03;;;;;;;23.78;100.00;100767.31;5036540;28;20215;-59
2021/07/03 07:14:22;;;;;;;8.43;6.60;;;;;;;24.85;100.00;100765.00;5035899;28;20046;-59
2021/07/03 07:16:50;;;;;;;8.25;6.68;;;;;;;24.46;100.00;100772.50;5035204;28;20042;-59
2021/07/03 07:19:18;;;;;;;9.15;6.32;;;;;;;24.47;100.00;100768.66;5035985;28;20038;-59
2021/07/03 07:21:46;;;;;;;8.40;6.10;;;;;;;23.47;100.00;100772.34;5035228;28;20481;-58
2021/07/03 07:24:14;;;;;;;7.70;6.50;;;;;;;23.17;100.00;100771.63;5039810;28;20073;-61
2021/07/03 07:26:42;;;;;;;8.75;6.35;;;;;;;22.81;100.00;100778.34;5040421;28;20049;-61
2021/07/03 07:29:10;;;;;;;10.98;6.70;;;;;;;22.12;100.00;100774.59;5035675;28;20107;-62
2021/07/03 07:31:40;;;;;;;9.63;7.50;;;;;;;22.19;100.00;100774.47;5035380;28;20050;-60
2021/07/03 07:34:08;;;;;;;8.23;6.65;;;;;;;22.04;100.00;100772.25;5048762;28;20110;-60
2021/07/03 07:36:36;;;;;;;11.68;6.28;;;;;;;21.75;100.00;100774.09;5034582;28;20045;-60
2021/07/03 07:39:04;;;;;;;10.27;6.57;;;;;;;21.85;100.00;100771.59;5039201;28;20429;-60
2021/07/03 07:41:32;;;;;;;10.60;6.78;;;;;;;22.27;100.00;100765.09;5034108;28;20365;-60
2021/07/03 07:44:03;;;;;;;9.18;6.72;;;;;;;22.87;100.00;100763.75;5033309;28;20377;-60
2021/07/03 07:46:31;;;;;;;10.65;6.93;;;;;;;23.40;100.00;100771.69;5035816;28;20037;-60
2021/07/03 07:49:01;;;;;;;13.63;7.22;;;;;;;23.13;100.00;100777.81;5032947;28;20499;-61
2021/07/03 07:51:29;;;;;;;10.27;6.85;;;;;;;23.30;100.00;100775.91;5038731;28;20116;-60
2021/07/03 07:53:57;;;;;;;10.18;6.95;;;;;;;23.73;100.00;100777.06;5034319;28;20057;-61
2021/07/03 07:56:25;;;;;;;12.35;6.22;;;;;;;23.71;100.00;100781.13;5040931;28;20075;-61
2021/07/03 07:58:52;;;;;;;14.05;7.75;;;;;;;23.54;100.00;100776.53;5033643;28;20041;-61
2021/07/03 08:01:20;;;;;;;12.23;7.35;;;;;;;23.31;100.00;100774.84;5036891;28;20038;-61
2021/07/03 08:03:48;;;;;;;10.60;7.97;;;;;;;23.27;100.00;100772.88;5039261;28;20053;-60
2021/07/03 08:06:18;;;;;;;9.43;6.80;;;;;;;23.47;100.00;100772.34;5040042;28;20113;-64
2021/07/03 08:08:46;;;;;;;10.82;7.25;;;;;;;24.10;100.00;100780.28;5038547;28;20051;-60
2021/07/03 08:11:13;;;;;;;13.00;7.95;;;;;;;24.57;100.00;100775.06;5037314;28;20037;-60
2021/07/03 08:13:41;;;;;;;13.00;7.45;;;;;;;23.87;100.00;100771.28;5033963;28;20046;-61
2021/07/03 08:16:10;;;;;;;11.95;7.65;;;;;;;23.58;100.00;100768.69;5037554;28;20337;-60
2021/07/03 08:18:39;;;;;;;14.10;8.48;;;;;;;24.92;100.00;100767.47;5036412;28;20133;-60
2021/07/03 08:21:06;;;;;;;12.25;7.28;;;;;;;26.01;100.00;100763.56;5032984;28;20592;-60
2021/07/03 08:23:36;;;;;;;14.65;7.55;;;;;;;24.87;100.00;100762.00;5034290;28;20041;-61
2021/07/03 08:26:04;;;;;;;10.05;6.93;;;;;;;25.42;100.00;100763.50;5036593;28;20045;-60
2021/07/03 08:28:32;;;;;;;10.77;7.85;;;;;;;25.74;100.00;100770.81;5034218;28;20134;-60
2021/07/03 08:31:00;;;;;;;9.65;7.50;;;;;;;26.59;100.00;100761.50;5032750;28;20059;-61
2021/07/03 08:33:28;;;;;;;11.07;7.70;;;;;;;27.14;100.00;100761.81;5033619;28;20055;-60
2021/07/03 08:35:56;;;;;;;10.98;6.80;;;;;;;26.80;100.00;100769.78;5033784;28;20045;-61
2021/07/03 08:38:24;;;;;;;8.20;6.80;;;;;;;26.83;100.00;100771.16;5035673;28;20049;-60
2021/07/03 08:40:55;;;;;;;13.13;7.15;;;;;;;27.05;100.00;100763.47;5035062;28;20056;-60
2021/07/03 08:43:23;;;;;;;14.60;8.27;;;;;;;27.01;100.00;100765.13;5031496;28;20377;-61
2021/07/03 08:45:55;;;;;;;10.85;7.85;;;;;;;27.14;100.00;100764.53;5035459;28;20045;-61
2021/07/03 08:48:24;;;;;;;9.18;7.38;;;;;;;26.94;100.00;100764.56;5033924;28;20053;-60
2021/07/03 08:50:52;;;;;;;10.85;7.85;;;;;;;25.63;100.00;100776.47;5033552;28;20743;-61
2021/07/03 08:53:22;;;;;;;12.77;7.95;;;;;;;26.47;100.00;100774.63;5034249;28;20033;-60
2021/07/03 08:55:53;;;;;;;9.88;7.63;;;;;;;27.18;100.00;100781.28;5032067;28;20595;-60
2021/07/03 08:58:21;;;;;;;10.63;7.95;;;;;;;27.70;100.00;100772.97;5037294;28;20048;-60
2021/07/03 09:00:49;;;;;;;17.60;8.65;;;;;;;27.81;100.00;100772.66;5034513;28;20044;-60
2021/07/03 09:03:18;;;;;;;11.50;8.27;;;;;;;26.56;100.00;100774.91;5031230;28;20693;-60
2021/07/03 09:05:50;;;;;;;13.85;8.82;;;;;;;25.65;100.00;100774.31;5038131;28;20116;-60
2021/07/03 09:08:19;;;;;;;13.27;8.70;;;;;;;27.17;100.00;100767.84;5033941;28;20053;-60
2021/07/03 09:10:47;;;;;;;12.27;8.10;;;;;;;27.57;100.00;100760.66;5036047;28;20061;-60
2021/07/03 09:13:19;;;;;;;11.02;7.88;;;;;;;27.20;100.00;100757.13;5032938;28;20049;-60
2021/07/03 09:15:47;;;;;;;20.75;7.55;;;;;;;27.58;100.00;100759.56;5034978;28;20044;-61
2021/07/03 09:18:16;;;;;;;9.48;6.90;;;;;;;27.31;100.00;100749.72;5035400;28;20091;-61
2021/07/03 09:20:51;;;;;;;10.63;7.45;;;;;;;27.11;100.00;100754.13;5035968;28;20609;-60
2021/07/03 09:23:20;;;;;;;9.88;7.80;;;;;;;27.45;100.00;100752.75;5035001;28;20123;-60
2021/07/03 09:25:49;;;;;;;11.77;7.22;;;;;;;27.93;100.00;100764.09;5035744;28;20120;-61
2021/07/03 09:28:20;;;;;;;9.85;7.03;;;;;;;27.11;100.00;100748.66;5032216;28;20393;-60
2021/07/03 09:30:49;;;;;;;10.60;7.53;;;;;;;28.02;100.00;100756.13;5033353;28;20041;-60
2021/07/03 09:33:18;;;;;;;8.25;6.38;;;;;;;28.46;100.00;100763.56;5032655;28;20125;-60
2021/07/03 09:35:54;;;;;;;17.63;7.10;;;;;;;28.78;100.00;100765.00;5033005;28;20195;-60
2021/07/03 09:38:29;;;;;;;8.45;6.82;;;;;;;27.51;100.00;100767.28;5038550;28;20041;-61
2021/07/03 09:41:06;;;;;;;10.07;6.75;;;;;;;29.19;100.00;100763.84;5036992;28;20049;-61
2021/07/03 09:43:36;;;;;;;8.60;6.65;;;;;;;28.81;100.00;100758.13;5032726;28;20434;-61
2021/07/03 09:46:04;;;;;;;11.93;7.30;;;;;;;28.50;100.00;100758.31;5034871;28;20357;-60
2021/07/03 09:48:32;;;;;;;10.95;6.47;;;;;;;28.16;100.00;100753.59;5035760;28;20049;-61
2021/07/03 09:51:08;;;;;;;8.48;7.00;;;;;;;27.78;100.00;100751.25;5033059;28;20057;-61
2021/07/03 09:53:36;;;;;;;8.85;6.68;;;;;;;27.91;100.00;100749.81;5032019;28;20064;-60
2021/07/03 09:56:05;;;;;;;8.70;6.40;;;;;;;26.83;100.00;100758.25;5033248;28;20041;-61
2021/07/03 09:58:38;;;;;;;9.70;6.85;;;;;;;26.73;100.00;100770.03;5031967;28;20045;-61
2021/07/03 10:01:07;;;;;;;9.32;6.95;;;;;;;25.63;100.00;100758.19;5032035;28;20053;-60
2021/07/03 10:03:34;;;;;;;10.48;7.00;;;;;;;26.25;100.00;100758.44;5036421;28;20052;-60
2021/07/03 10:06:03;;;;;;;9.10;6.22;;;;;;;26.90;100.00;100752.53;5031481;28;20045;-60
2021/07/03 10:08:31;;;;;;;9.52;6.65;;;;;;;26.24;100.00;100752.16;5034062;28;20037;-60
2021/07/03 10:11:01;;;;;;;9.40;6.15;;;;;;;25.35;100.00;100752.00;5032022;28;20464;-60
2021/07/03 10:13:31;;;;;;;9.43;8.27;;;;;;;25.23;100.00;100757.63;5033498;28;20041;-60
2021/07/03 10:16:07;;;;;;;8.05;6.47;;;;;;;26.33;100.00;100757.91;5034506;28;20040;-60
2021/07/03 10:18:36;;;;;;;9.68;5.75;;;;;;;26.58;100.00;100756.28;5035369;28;20052;-60
2021/07/03 10:21:09;;;;;;;9.00;6.45;;;;;;;27.97;100.00;100748.72;5029060;28;20048;-61
2021/07/03 10:23:38;;;;;;;7.65;6.43;;;;;;;27.80;100.00;100751.81;5033465;28;20033;-61
2021/07/03 10:26:06;;;;;;;8.73;5.80;;;;;;;28.06;100.00;100746.22;5033588;28;20106;-60
2021/07/03 10:28:36;;;;;;;8.15;6.50;;;;;;;26.12;100.00;100749.63;5034314;28;20064;-60
2021/07/03 10:31:08;;;;;;;9.30;6.50;;;;;;;25.06;100.00;100752.31;5035494;28;20033;-60
2021/07/03 10:33:44;;;;;;;8.52;6.55;;;;;;;25.28;100.00;100740.44;5036013;28;20030;-60
2021/07/03 10:36:26;;;;;;;9.57;8.13;;;;;;;23.82;100.00;100752.09;5034711;28;20198;-60
2021/07/03 10:38:55;;;;;;;9.05;6.43;;;;;;;24.57;100.00;100746.97;5034807;28;20041;-60
2021/07/03 10:41:25;;;;;;;9.60;7.13;;;;;;;25.04;100.00;100754.47;5038051;28;20094;-60
2021/07/03 10:43:54;;;;;;;10.00;7.10;;;;;;;24.82;100.00;100748.28;5034746;28;20239;-60
2021/07/03 10:46:31;;;;;;;7.90;6.38;;;;;;;26.39;100.00;100747.78;5039747;28;20156;-60
2021/07/03 10:49:01;;;;;;;11.35;7.90;;;;;;;24.99;100.00;100734.50;5034281;28;20045;-60
2021/07/03 10:51:39;;;;;;;9.90;6.95;;;;;;;26.61;100.00;100742.09;5037138;28;20049;-61
2021/07/03 10:54:09;;;;;;;13.10;7.07;;;;;;;27.46;100.00;100744.25;5036412;28;20041;-60
2021/07/03 10:56:46;;;;;;;10.45;8.07;;;;;;;26.16;100.00;100740.91;5037156;28;20037;-60
2021/07/03 10:59:16;;;;;;;9.35;7.07;;;;;;;25.56;100.00;100741.16;5041683;28;20244;-60
2021/07/03 11:01:46;;;;;;;7.95;6.97;;;;;;;25.16;100.00;100748.81;5040321;28;20318;-60
2021/07/03 11:04:17;;;;;;;8.60;7.07;;;;;;;24.57;100.00;100755.16;5037597;28;20061;-60
2021/07/03 11:06:48;;;;;;;12.05;7.75;;;;;;;23.89;100.00;100758.22;5042970;28;20045;-61
2021/07/03 11:09:36;;;;;;;10.95;7.82;;;;;;;24.94;100.00;100757.13;5038306;28;20045;-61
2021/07/03 11:12:13;;;;;;;11.73;7.40;;;;;;;25.32;100.00;100757.16;5037414;28;20054;-62
2021/07/03 11:14:47;;;;;;;12.57;7.78;;;;;;;24.87;100.00;100749.16;5035646;28;20053;-60
2021/07/03 11:17:17;;;;;;;9.85;7.78;;;;;;;24.89;100.00;100752.47;5038646;28;20056;-61